createdAt,value
2019-02-08T00:02:24.568Z,4.83
2019-02-08T00:07:26.868Z,4.50
2019-02-08T00:12:29.316Z,4.50
2019-02-08T00:17:31.622Z,4.93
2019-02-08T00:22:33.657Z,4.27
2019-02-08T00:27:38.936Z,4.50
2019-02-08T00:32:43.504Z,4.20
2019-02-08T00:37:45.528Z,4.50
2019-02-08T00:42:47.540Z,4.23
2019-02-08T00:47:51.818Z,4.00
2019-02-08T00:52:55.194Z,4.10
2019-02-08T00:57:57.172Z,3.37
2019-02-08T01:03:01.585Z,4.30
2019-02-08T01:08:05.548Z,3.60
2019-02-08T01:13:07.604Z,3.47
2019-02-08T01:18:09.663Z,4.07
2019-02-08T01:23:11.812Z,4.60
2019-02-08T01:28:14.517Z,5.17
2019-02-08T01:33:16.657Z,4.53
2019-02-08T01:38:18.669Z,5.03
2019-02-08T01:43:23.482Z,4.60
2019-02-08T01:48:30.195Z,5.13
2019-02-08T01:53:34.163Z,5.00
2019-02-08T01:58:36.419Z,4.70
2019-02-08T02:03:38.705Z,4.83
2019-02-08T02:08:40.779Z,4.17
2019-02-08T02:13:42.962Z,5.00
2019-02-08T02:18:45.001Z,4.90
2019-02-08T02:23:47.244Z,4.43
2019-02-08T02:28:49.246Z,4.23
2019-02-08T02:33:51.258Z,4.10
2019-02-08T02:38:53.316Z,4.47
2019-02-08T02:43:55.486Z,5.00
2019-02-08T02:48:57.523Z,4.57
2019-02-08T02:54:04.650Z,4.13
2019-02-08T02:59:06.426Z,4.87
2019-02-08T03:04:12.655Z,5.23
2019-02-08T03:09:14.689Z,5.60
2019-02-08T03:14:18.569Z,6.37
2019-02-08T03:19:20.608Z,6.70
2019-02-08T03:24:22.689Z,14.67
2019-02-08T03:29:24.733Z,24.33
2019-02-08T03:34:27.258Z,47.00
2019-02-08T03:39:29.269Z,33.53
2019-02-08T03:44:31.592Z,13.50
2019-02-08T03:49:33.653Z,7.97
2019-02-08T03:54:35.788Z,8.97
2019-02-08T03:59:37.883Z,9.23
2019-02-08T04:04:40.055Z,9.60
2019-02-08T04:09:42.080Z,8.97
2019-02-08T04:14:44.386Z,9.70
2019-02-08T04:19:46.399Z,10.40
2019-02-08T04:24:48.649Z,11.37
2019-02-08T04:29:50.686Z,10.13
2019-02-08T04:34:54.569Z,10.30
2019-02-08T04:39:56.588Z,10.37
2019-02-08T04:44:58.694Z,9.20
2019-02-08T04:50:00.747Z,9.93
2019-02-08T04:55:05.843Z,10.53
2019-02-08T05:00:28.985Z,10.17
2019-02-08T05:05:31.163Z,9.70
2019-02-08T05:10:33.257Z,9.30
2019-02-08T05:15:35.444Z,8.70
2019-02-08T05:20:37.463Z,9.67
2019-02-08T05:25:40.658Z,9.63
2019-02-08T05:30:42.700Z,9.50
2019-02-08T05:35:44.799Z,8.83
2019-02-08T05:40:46.826Z,9.93
2019-02-08T05:45:48.867Z,9.27
2019-02-08T05:50:53.033Z,9.27
2019-02-08T05:55:55.100Z,8.37
2019-02-08T06:00:58.062Z,9.03
2019-02-08T06:06:00.175Z,9.83
2019-02-08T06:11:02.194Z,8.30
2019-02-08T06:16:04.270Z,8.90
2019-02-08T06:21:06.292Z,8.77
2019-02-08T06:26:08.473Z,9.00
2019-02-08T06:31:10.515Z,8.37
2019-02-08T06:36:12.546Z,8.73
2019-02-08T06:41:14.629Z,9.73
2019-02-08T06:46:16.977Z,9.13
2019-02-08T06:51:18.969Z,10.47
2019-02-08T06:56:39.498Z,11.37
2019-02-08T07:02:09.056Z,10.33
2019-02-08T07:07:27.108Z,10.00
2019-02-08T07:12:49.350Z,11.17
2019-02-08T07:18:20.324Z,10.97
2019-02-08T07:24:01.550Z,12.47
2019-02-08T07:29:29.102Z,12.00
2019-02-08T07:34:46.660Z,12.50
2019-02-08T07:40:13.642Z,11.90
2019-02-08T07:45:21.523Z,11.40
2019-02-08T07:51:01.217Z,12.80
2019-02-08T07:56:22.380Z,12.97
2019-02-08T08:01:45.713Z,12.30
2019-02-08T08:07:10.263Z,13.13
2019-02-08T08:12:31.909Z,12.77
2019-02-08T08:17:53.901Z,13.00
2019-02-08T08:23:09.310Z,13.13
2019-02-08T08:28:33.515Z,13.37
2019-02-08T08:33:55.175Z,14.23
2019-02-08T08:39:33.607Z,13.30
2019-02-08T08:45:30.040Z,12.87
2019-02-08T08:51:08.908Z,12.37
2019-02-08T08:56:36.864Z,11.73
2019-02-08T09:02:35.953Z,10.27
2019-02-08T09:08:21.540Z,12.47
2019-02-08T09:13:50.701Z,11.93
2019-02-08T09:19:12.944Z,11.70
2019-02-08T09:24:54.090Z,10.93
2019-02-08T09:30:29.976Z,10.77
2019-02-08T09:36:26.342Z,10.23
2019-02-08T09:42:13.625Z,9.57
2019-02-08T09:47:52.345Z,8.87
2019-02-08T09:53:40.469Z,9.47
2019-02-08T09:59:08.147Z,8.77
2019-02-08T10:04:34.495Z,8.00
2019-02-08T10:10:14.156Z,8.00
2019-02-08T10:16:00.926Z,7.77
2019-02-08T10:21:40.213Z,8.00
2019-02-08T10:27:27.421Z,7.93
2019-02-08T10:33:05.975Z,8.40
2019-02-08T10:38:57.876Z,7.37
2019-02-08T10:44:54.074Z,7.57
2019-02-08T10:50:35.195Z,7.37
2019-02-08T10:56:25.543Z,6.60
2019-02-08T11:02:05.486Z,6.67
2019-02-08T11:07:42.300Z,6.73
2019-02-08T11:13:28.299Z,6.90
2019-02-08T11:19:08.827Z,6.10
2019-02-08T11:24:11.007Z,6.27
2019-02-08T11:29:13.071Z,7.63
2019-02-08T11:34:15.297Z,5.93
2019-02-08T11:39:18.272Z,5.93
2019-02-08T11:44:21.184Z,6.37
2019-02-08T11:49:23.213Z,5.80
2019-02-08T11:54:25.979Z,5.70
2019-02-08T11:59:28.250Z,5.10
2019-02-08T12:04:30.696Z,5.43
2019-02-08T12:09:32.803Z,5.47
2019-02-08T12:14:35.149Z,5.53
2019-02-08T12:19:37.218Z,6.20
2019-02-08T12:24:39.525Z,5.40
2019-02-08T12:29:41.538Z,5.30
2019-02-08T12:34:43.652Z,5.30
2019-02-08T12:39:49.931Z,5.20
2019-02-08T12:44:53.337Z,4.83
2019-02-08T12:49:55.449Z,4.73
2019-02-08T12:55:00.903Z,4.57
2019-02-08T13:00:04.002Z,5.53
2019-02-08T13:05:07.330Z,4.17
2019-02-08T13:10:13.491Z,4.17
2019-02-08T13:15:15.938Z,4.33
2019-02-08T13:20:18.153Z,4.07
2019-02-08T13:25:20.379Z,3.53
2019-02-08T13:30:24.792Z,3.63
2019-02-08T13:35:28.398Z,4.03
2019-02-08T13:40:30.452Z,3.90
2019-02-08T13:45:32.570Z,3.90
2019-02-08T13:50:34.579Z,3.87
2019-02-08T13:55:36.852Z,4.20
2019-02-08T14:00:43.357Z,4.00
2019-02-08T14:05:45.760Z,3.90
2019-02-08T14:10:48.041Z,3.50
2019-02-08T14:15:50.350Z,3.00
2019-02-08T14:20:52.369Z,3.83
2019-02-08T14:25:55.380Z,4.33
2019-02-08T14:30:57.450Z,3.60
2019-02-08T14:36:01.374Z,3.87
2019-02-08T14:41:03.667Z,3.90
2019-02-08T14:46:05.981Z,4.10
2019-02-08T14:51:09.988Z,3.70
2019-02-08T14:56:12.396Z,3.67
2019-02-08T15:01:16.255Z,4.00
2019-02-08T15:06:18.420Z,4.13
2019-02-08T15:11:20.454Z,3.33
2019-02-08T15:16:22.690Z,3.43
2019-02-08T15:21:24.720Z,3.27
2019-02-08T15:26:26.931Z,3.20
2019-02-08T15:31:30.636Z,3.13
2019-02-08T15:36:32.766Z,2.83
2019-02-08T15:41:35.953Z,3.10
2019-02-08T15:46:38.319Z,3.00
2019-02-08T15:51:40.478Z,3.80
2019-02-08T15:56:42.511Z,3.37
2019-02-08T16:01:47.317Z,3.30
2019-02-08T16:06:49.692Z,3.57
2019-02-08T16:11:52.607Z,3.23
2019-02-08T16:16:54.790Z,3.17
2019-02-08T16:21:56.859Z,3.60
2019-02-08T16:26:59.028Z,3.47
2019-02-08T16:32:01.046Z,3.50
2019-02-08T16:37:03.841Z,3.03
2019-02-08T16:42:07.643Z,3.50
2019-02-08T16:47:10.080Z,3.13
2019-02-08T16:52:15.154Z,3.03
2019-02-08T16:57:18.017Z,3.23
2019-02-08T17:02:20.038Z,3.27
2019-02-08T17:07:22.301Z,2.93
2019-02-08T17:12:24.327Z,3.17
2019-02-08T17:17:26.534Z,3.13
2019-02-08T17:22:33.238Z,3.13
2019-02-08T17:27:35.370Z,3.23
2019-02-08T17:32:37.426Z,3.27
2019-02-08T17:37:39.814Z,3.10
2019-02-08T17:42:41.957Z,3.23
2019-02-08T17:47:44.223Z,3.17
2019-02-08T17:52:46.212Z,4.03
2019-02-08T17:57:50.313Z,3.93
2019-02-08T18:02:57.352Z,3.33
2019-02-08T18:07:59.409Z,3.20
2019-02-08T18:13:06.619Z,3.40
2019-02-08T18:18:10.970Z,3.67
2019-02-08T18:23:18.039Z,3.60
2019-02-08T18:28:21.859Z,3.60
2019-02-08T18:33:24.178Z,3.53
2019-02-08T18:38:26.203Z,3.60
2019-02-08T18:43:28.351Z,3.70
2019-02-08T18:48:32.228Z,3.67
2019-02-08T18:53:34.247Z,3.60
2019-02-08T18:58:36.250Z,4.00
2019-02-08T19:03:40.618Z,6.83
2019-02-08T19:08:42.653Z,6.33
2019-02-08T19:13:44.715Z,41.75
2019-02-08T19:18:46.696Z,5.93
2019-02-08T19:23:49.933Z,4.53
2019-02-08T19:28:52.024Z,3.87
2019-02-08T19:33:54.065Z,4.70
2019-02-08T19:38:56.157Z,4.30
2019-02-08T19:43:58.340Z,3.97
2019-02-08T19:49:00.351Z,4.00
2019-02-08T19:54:02.606Z,3.23
2019-02-08T19:59:07.147Z,4.10
2019-02-08T20:04:09.337Z,4.07
2019-02-08T20:09:11.410Z,4.00
2019-02-08T20:14:14.524Z,3.27
2019-02-08T20:19:18.140Z,3.90
2019-02-08T20:24:20.344Z,4.13
2019-02-08T20:29:22.356Z,4.10
2019-02-08T20:34:25.010Z,4.00
2019-02-08T20:39:27.059Z,4.00
2019-02-08T20:44:29.308Z,4.40
2019-02-08T20:49:33.479Z,5.37
2019-02-08T20:54:36.254Z,4.13
2019-02-08T20:59:40.275Z,4.47
2019-02-08T21:04:42.297Z,4.17
2019-02-08T21:09:46.240Z,4.47
2019-02-08T21:14:48.269Z,4.63
2019-02-08T21:19:52.461Z,4.73
2019-02-08T21:24:54.546Z,4.30
2019-02-08T21:29:56.537Z,4.80
2019-02-08T21:34:58.790Z,4.37
2019-02-08T21:40:04.800Z,4.83
2019-02-08T21:45:10.473Z,4.17
2019-02-08T21:50:13.883Z,4.53
2019-02-08T21:55:17.289Z,4.73
2019-02-08T22:00:21.624Z,4.00
2019-02-08T22:05:26.560Z,4.60
2019-02-08T22:10:28.631Z,4.33
2019-02-08T22:15:32.312Z,3.80
2019-02-08T22:20:34.433Z,3.87
2019-02-08T22:25:40.493Z,4.07
2019-02-08T22:30:42.548Z,3.73
2019-02-08T22:35:49.662Z,3.70
2019-02-08T22:40:51.711Z,3.70
2019-02-08T22:45:54.006Z,4.70
2019-02-08T22:51:00.943Z,4.00
2019-02-08T22:56:08.016Z,4.50
2019-02-08T23:01:35.592Z,3.70
2019-02-08T23:06:51.330Z,3.83
2019-02-08T23:11:53.455Z,4.20
2019-02-08T23:16:56.149Z,4.00
2019-02-08T23:21:58.242Z,4.37
2019-02-08T23:27:02.771Z,4.00
2019-02-08T23:32:04.809Z,3.90
2019-02-08T23:37:11.067Z,4.40
2019-02-08T23:42:13.054Z,3.93
2019-02-08T23:47:15.518Z,3.50
2019-02-08T23:52:17.521Z,3.73
2019-02-08T23:57:19.709Z,4.17
